createdAt,value
2017-04-16T00:00:52.353Z,1013.9
2017-04-16T00:01:54.685Z,1013.9
2017-04-16T00:02:57.021Z,1013.9
2017-04-16T00:03:59.861Z,1013.9
2017-04-16T00:05:02.197Z,1013.9
2017-04-16T00:06:05.159Z,1013.9
2017-04-16T00:07:07.727Z,1013.9
2017-04-16T00:08:10.060Z,1014
2017-04-16T00:09:12.902Z,1013.9
2017-04-16T00:10:15.775Z,1014
2017-04-16T00:11:18.368Z,1013.9
2017-04-16T00:12:20.700Z,1014
2017-04-16T00:13:23.536Z,1013.9
2017-04-16T00:14:25.872Z,1013.9
2017-04-16T00:15:28.708Z,1014
2017-04-16T00:16:31.658Z,1014
2017-04-16T00:17:33.993Z,1013.9
2017-04-16T00:18:36.333Z,1013.9
2017-04-16T00:19:39.176Z,1013.9
2017-04-16T00:20:42.019Z,1013.9
2017-04-16T00:21:44.658Z,1013.9
2017-04-16T00:22:46.998Z,1014
2017-04-16T00:24:52.237Z,1014
2017-04-16T00:25:54.740Z,1014
2017-04-16T00:26:57.880Z,1014
2017-04-16T00:28:00.217Z,1014
2017-04-16T00:29:02.557Z,1014
2017-04-16T00:30:05.400Z,1014
2017-04-16T00:31:08.254Z,1014
2017-04-16T00:32:10.754Z,1014
2017-04-16T00:33:13.094Z,1014
2017-04-16T00:34:15.936Z,1014
2017-04-16T00:35:18.777Z,1014
2017-04-16T00:36:21.121Z,1014
2017-04-16T00:37:24.261Z,1014
2017-04-16T00:38:26.598Z,1014
2017-04-16T00:39:28.969Z,1014
2017-04-16T00:40:31.504Z,1014
2017-04-16T00:41:34.206Z,1014.1
2017-04-16T00:42:37.302Z,1014.1
2017-04-16T00:43:39.636Z,1014.1
2017-04-16T00:44:42.338Z,1014.1
2017-04-16T00:45:44.537Z,1014.1
2017-04-16T00:46:47.377Z,1014.1
2017-04-16T00:47:50.477Z,1014.1
2017-04-16T00:49:55.227Z,1014.1
2017-04-16T00:50:58.070Z,1014.1
2017-04-16T00:52:00.403Z,1014.1
2017-04-16T00:53:03.543Z,1014
2017-04-16T00:54:05.876Z,1014.1
2017-04-16T00:55:08.232Z,1014.1
2017-04-16T00:56:11.075Z,1014.1
2017-04-16T00:57:13.412Z,1014.1
2017-04-16T00:58:16.513Z,1014.1
2017-04-16T00:59:18.848Z,1014.1
2017-04-16T01:00:21.686Z,1014.1
2017-04-16T01:01:24.028Z,1014.1
2017-04-16T01:02:26.864Z,1014.1
2017-04-16T01:03:29.503Z,1014.1
2017-04-16T01:04:31.714Z,1014.2
2017-04-16T01:05:34.556Z,1014.1
2017-04-16T01:07:39.801Z,1014.2
2017-04-16T01:08:42.893Z,1014.1
2017-04-16T01:09:44.802Z,1014.2
2017-04-16T01:10:47.646Z,1014.2
2017-04-16T01:11:50.482Z,1014.2
2017-04-16T01:12:52.821Z,1014.2
2017-04-16T01:13:55.913Z,1014.2
2017-04-16T01:14:58.247Z,1014.2
2017-04-16T01:16:00.583Z,1014.2
2017-04-16T01:17:03.432Z,1014.2
2017-04-16T01:18:05.765Z,1014.2
2017-04-16T01:19:08.726Z,1014.2
2017-04-16T01:20:11.064Z,1014.2
2017-04-16T01:21:13.771Z,1014.2
2017-04-16T01:22:16.605Z,1014.2
2017-04-16T01:23:18.937Z,1014.2
2017-04-16T01:24:21.928Z,1014.2
2017-04-16T01:25:24.129Z,1014.2
2017-04-16T01:26:26.968Z,1014.2
2017-04-16T01:27:29.301Z,1014.2
2017-04-16T01:28:32.145Z,1014.2
2017-04-16T01:29:35.287Z,1014.2
2017-04-16T01:30:37.487Z,1014.2
2017-04-16T01:31:39.825Z,1014.3
2017-04-16T01:32:42.664Z,1014.2
2017-04-16T01:33:45.015Z,1014.3
2017-04-16T01:34:48.154Z,1014.3
2017-04-16T01:35:50.490Z,1014.3
2017-04-16T01:37:55.600Z,1014.3
2017-04-16T01:38:58.456Z,1014.3
2017-04-16T01:40:01.099Z,1014.2
2017-04-16T01:42:05.842Z,1014.2
2017-04-16T01:43:08.686Z,1014.3
2017-04-16T01:44:11.023Z,1014.2
2017-04-16T01:45:14.165Z,1014.3
2017-04-16T01:46:16.499Z,1014.2
2017-04-16T01:47:18.836Z,1014.3
2017-04-16T01:48:21.542Z,1014.2
2017-04-16T01:49:24.245Z,1014.2
2017-04-16T01:50:27.342Z,1014.2
2017-04-16T01:51:29.679Z,1014.3
2017-04-16T01:52:32.016Z,1014.2
2017-04-16T01:53:34.861Z,1014.3
2017-04-16T01:54:37.213Z,1014.3
2017-04-16T01:55:40.363Z,1014.3
2017-04-16T01:56:42.700Z,1014.3
2017-04-16T01:57:45.036Z,1014.4
2017-04-16T01:58:47.879Z,1014.3
2017-04-16T01:59:50.220Z,1014.4
2017-04-16T02:00:53.358Z,1014.4
2017-04-16T02:01:55.700Z,1014.3
2017-04-16T02:02:58.036Z,1014.3
2017-04-16T02:04:00.872Z,1014.3
2017-04-16T02:05:03.210Z,1014.4
2017-04-16T02:07:09.056Z,1014.4
2017-04-16T02:08:11.481Z,1014.3
2017-04-16T02:10:16.290Z,1014.3
2017-04-16T02:11:19.130Z,1014.4
2017-04-16T02:12:21.767Z,1014.4
2017-04-16T02:13:24.466Z,1014.4
2017-04-16T02:14:26.664Z,1014.3
2017-04-16T02:16:31.912Z,1014.3
2017-04-16T02:17:35.002Z,1014.3
2017-04-16T02:18:37.339Z,1014.3
2017-04-16T02:19:39.912Z,1014.3
2017-04-16T02:20:42.750Z,1014.3
2017-04-16T02:21:45.096Z,1014.3
2017-04-16T02:22:48.137Z,1014.3
2017-04-16T02:23:50.336Z,1014.3
2017-04-16T02:24:53.186Z,1014.3
2017-04-16T02:25:55.530Z,1014.3
2017-04-16T02:26:58.366Z,1014.4
2017-04-16T02:28:01.004Z,1014.4
2017-04-16T02:29:03.345Z,1014.4
2017-04-16T02:30:06.196Z,1014.4
2017-04-16T02:31:08.394Z,1014.4
2017-04-16T02:33:13.890Z,1014.4
2017-04-16T02:34:16.224Z,1014.3
2017-04-16T02:35:18.954Z,1014.3
2017-04-16T02:37:24.203Z,1014.3
2017-04-16T02:38:27.302Z,1014.4
2017-04-16T02:39:29.370Z,1014.3
2017-04-16T02:40:32.072Z,1014.3
2017-04-16T02:41:34.441Z,1014.3
2017-04-16T02:42:37.279Z,1014.3
2017-04-16T02:43:39.927Z,1014.3
2017-04-16T02:44:42.275Z,1014.3
2017-04-16T02:45:45.112Z,1014.4
2017-04-16T02:46:47.444Z,1014.3
2017-04-16T02:47:50.150Z,1014.3
2017-04-16T02:48:53.295Z,1014.3
2017-04-16T02:49:55.504Z,1014.3
2017-04-16T02:50:57.841Z,1014.3
2017-04-16T02:52:00.853Z,1014.3
2017-04-16T02:53:03.195Z,1014.4
2017-04-16T02:54:06.344Z,1014.3
2017-04-16T02:55:08.682Z,1014.3
2017-04-16T02:56:10.951Z,1014.3
2017-04-16T02:57:13.785Z,1014.3
2017-04-16T02:58:16.119Z,1014.3
2017-04-16T03:00:21.663Z,1014.3
2017-04-16T03:01:23.995Z,1014.3
2017-04-16T03:02:26.832Z,1014.3
2017-04-16T03:03:29.224Z,1014.3
2017-04-16T03:04:32.067Z,1014.3
2017-04-16T03:05:34.970Z,1014.3
2017-04-16T03:06:37.175Z,1014.3
2017-04-16T03:07:39.517Z,1014.4
2017-04-16T03:08:42.363Z,1014.4
2017-04-16T03:09:44.697Z,1014.4
2017-04-16T03:11:50.193Z,1014.4
2017-04-16T03:12:52.527Z,1014.4
2017-04-16T03:13:55.371Z,1014.4
2017-04-16T03:14:57.766Z,1014.4
2017-04-16T03:16:00.665Z,1014.4
2017-04-16T03:17:03.250Z,1014.4
2017-04-16T03:18:05.588Z,1014.3
2017-04-16T03:19:08.174Z,1014.4
2017-04-16T03:21:13.321Z,1014.4
2017-04-16T03:22:16.411Z,1014.4
2017-04-16T03:23:18.803Z,1014.4
2017-04-16T03:24:21.161Z,1014.4
2017-04-16T03:25:23.998Z,1014.4
2017-04-16T03:26:26.333Z,1014.4
2017-04-16T03:27:29.425Z,1014.5
2017-04-16T03:28:31.763Z,1014.4
2017-04-16T03:29:34.110Z,1014.5
2017-04-16T03:30:36.551Z,1014.4
2017-04-16T03:31:39.257Z,1014.4
2017-04-16T03:32:42.349Z,1014.4
2017-04-16T03:33:44.685Z,1014.4
2017-04-16T03:34:47.022Z,1014.4
2017-04-16T03:35:49.866Z,1014.4
2017-04-16T03:36:52.202Z,1014.5
2017-04-16T03:37:55.343Z,1014.4
2017-04-16T03:38:57.680Z,1014.5
2017-04-16T03:40:00.016Z,1014.5
2017-04-16T03:41:02.855Z,1014.5
2017-04-16T03:42:05.191Z,1014.5
2017-04-16T03:43:08.335Z,1014.5
2017-04-16T03:44:10.669Z,1014.5
2017-04-16T03:45:13.012Z,1014.5
2017-04-16T03:46:15.852Z,1014.5
2017-04-16T03:47:18.055Z,1014.5
2017-04-16T03:48:21.202Z,1014.5
2017-04-16T03:50:25.949Z,1014.5
2017-04-16T03:51:28.792Z,1014.6
2017-04-16T03:52:31.123Z,1014.5
2017-04-16T03:53:34.266Z,1014.6
2017-04-16T03:54:36.102Z,1014.5
2017-04-16T03:55:38.946Z,1014.5
2017-04-16T03:56:41.280Z,1014.6
2017-04-16T03:57:44.125Z,1014.6
2017-04-16T03:58:46.712Z,1014.6
2017-04-16T03:59:49.055Z,1014.6
2017-04-16T04:00:52.043Z,1014.6
2017-04-16T04:01:54.249Z,1014.6
2017-04-16T04:02:57.085Z,1014.5
2017-04-16T04:03:59.687Z,1014.6
2017-04-16T04:05:02.026Z,1014.6
2017-04-16T04:06:04.733Z,1014.6
2017-04-16T04:07:07.076Z,1014.6
2017-04-16T04:08:09.912Z,1014.6
2017-04-16T04:09:12.499Z,1014.6
2017-04-16T04:10:14.834Z,1014.6
2017-04-16T04:11:17.674Z,1014.6
2017-04-16T04:12:20.006Z,1014.6
2017-04-16T04:13:22.849Z,1014.6
2017-04-16T04:14:25.886Z,1014.7
2017-04-16T04:15:28.093Z,1014.6
2017-04-16T04:16:30.423Z,1014.7
2017-04-16T04:17:33.263Z,1014.7
2017-04-16T04:18:35.639Z,1014.7
2017-04-16T04:19:38.598Z,1014.7
2017-04-16T04:20:40.937Z,1014.7
2017-04-16T04:21:43.282Z,1014.7
2017-04-16T04:23:48.523Z,1014.7
2017-04-16T04:24:51.537Z,1014.7
2017-04-16T04:25:53.742Z,1014.7
2017-04-16T04:26:56.583Z,1014.8
2017-04-16T04:29:01.488Z,1014.7
2017-04-16T04:30:04.630Z,1014.7
2017-04-16T04:31:06.965Z,1014.8
2017-04-16T04:32:09.302Z,1014.9
2017-04-16T04:33:12.146Z,1014.8
2017-04-16T04:34:14.487Z,1014.8
2017-04-16T04:35:17.123Z,1014.8
2017-04-16T04:36:19.459Z,1014.8
2017-04-16T04:37:22.298Z,1014.9
2017-04-16T04:38:24.638Z,1014.9
2017-04-16T04:39:27.480Z,1014.9
2017-04-16T04:40:30.072Z,1014.9
2017-04-16T04:41:32.377Z,1014.8
2017-04-16T04:42:35.217Z,1014.8
2017-04-16T04:43:37.614Z,1014.8
2017-04-16T04:45:43.109Z,1014.7
2017-04-16T04:46:45.446Z,1014.7
2017-04-16T04:47:48.287Z,1014.8
2017-04-16T04:48:50.627Z,1014.7
2017-04-16T04:49:52.965Z,1014.7
2017-04-16T04:50:55.925Z,1014.8
2017-04-16T04:51:58.264Z,1014.8
2017-04-16T04:53:01.102Z,1014.8
2017-04-16T04:54:03.437Z,1014.7
2017-04-16T04:55:05.969Z,1014.8
2017-04-16T04:56:08.929Z,1014.8
2017-04-16T04:57:11.263Z,1014.7
2017-04-16T04:58:14.102Z,1014.7
2017-04-16T04:59:16.443Z,1014.8
2017-04-16T05:00:19.285Z,1014.7
2017-04-16T05:01:21.868Z,1014.7
2017-04-16T05:02:24.252Z,1014.7
2017-04-16T05:03:26.589Z,1014.8
2017-04-16T05:05:31.835Z,1014.8
2017-04-16T05:06:34.924Z,1014.8
2017-04-16T05:07:37.260Z,1014.7
2017-04-16T05:08:39.637Z,1014.8
2017-04-16T05:09:42.479Z,1014.8
2017-04-16T05:10:44.810Z,1014.8
2017-04-16T05:11:47.951Z,1014.8
2017-04-16T05:13:52.693Z,1014.8
2017-04-16T05:14:55.399Z,1014.8
2017-04-16T05:15:57.736Z,1014.8
2017-04-16T05:17:00.823Z,1014.9
2017-04-16T05:18:03.165Z,1014.8
2017-04-16T05:19:05.505Z,1014.9
2017-04-16T05:20:08.348Z,1014.9
2017-04-16T05:21:10.684Z,1014.9
2017-04-16T05:22:13.778Z,1014.9
2017-04-16T05:23:16.117Z,1014.9
2017-04-16T05:24:18.457Z,1014.9
2017-04-16T05:25:20.793Z,1014.9
2017-04-16T05:26:23.632Z,1015
2017-04-16T05:27:26.269Z,1015
2017-04-16T05:28:28.609Z,1014.9
2017-04-16T05:29:31.445Z,1015
2017-04-16T05:30:33.781Z,1015
2017-04-16T05:31:36.482Z,1015
2017-04-16T05:32:39.624Z,1015
2017-04-16T05:33:41.965Z,1015
2017-04-16T05:34:44.212Z,1015
2017-04-16T05:35:47.129Z,1015
2017-04-16T05:36:49.469Z,1015.1
2017-04-16T05:37:52.609Z,1015
2017-04-16T05:38:54.446Z,1015.1
2017-04-16T05:39:57.297Z,1015
2017-04-16T05:41:00.064Z,1015
2017-04-16T05:42:02.401Z,1015.1
2017-04-16T05:43:05.544Z,1015.1
2017-04-16T05:44:07.378Z,1015.1
2017-04-16T05:45:10.220Z,1015.1
2017-04-16T05:47:15.331Z,1015.1
2017-04-16T05:48:18.474Z,1015.1
2017-04-16T05:49:20.563Z,1015.1
2017-04-16T05:50:23.407Z,1015.1
2017-04-16T05:51:25.742Z,1015.1
2017-04-16T05:52:28.587Z,1015.1
2017-04-16T05:53:31.178Z,1015.1
2017-04-16T05:54:33.520Z,1015.1
2017-04-16T05:55:36.356Z,1015.2
2017-04-16T05:57:41.100Z,1015.2
2017-04-16T05:58:44.264Z,1015.1
2017-04-16T05:59:46.464Z,1015.2
2017-04-16T06:00:49.171Z,1015.2
2017-04-16T06:01:51.510Z,1015.2
2017-04-16T06:02:54.440Z,1015.2
2017-04-16T06:03:57.030Z,1015.2
2017-04-16T06:04:59.364Z,1015.3
2017-04-16T06:06:02.070Z,1015.3
2017-04-16T06:07:04.912Z,1015.3
2017-04-16T06:08:07.253Z,1015.3
2017-04-16T06:09:10.071Z,1015.3
2017-04-16T06:10:12.412Z,1015.3
2017-04-16T06:12:17.657Z,1015.3
2017-04-16T06:13:20.498Z,1015.3
2017-04-16T06:15:25.545Z,1015.4
2017-04-16T06:16:27.881Z,1015.4
2017-04-16T06:17:30.716Z,1015.4
2017-04-16T06:18:33.050Z,1015.3
2017-04-16T06:20:38.650Z,1015.4
2017-04-16T06:21:40.987Z,1015.4
2017-04-16T06:22:43.825Z,1015.5
2017-04-16T06:23:46.162Z,1015.4
2017-04-16T06:24:49.009Z,1015.4
2017-04-16T06:25:51.599Z,1015.5
2017-04-16T06:26:54.028Z,1015.4
2017-04-16T06:27:56.870Z,1015.4
2017-04-16T06:28:59.206Z,1015.5
2017-04-16T06:30:01.780Z,1015.4
2017-04-16T06:31:04.930Z,1015.5
2017-04-16T06:32:07.265Z,1015.5
2017-04-16T06:33:09.600Z,1015.5
2017-04-16T06:35:14.849Z,1015.5
2017-04-16T06:36:18.024Z,1015.5
2017-04-16T06:37:20.363Z,1015.5
2017-04-16T06:38:22.699Z,1015.5
2017-04-16T06:39:25.245Z,1015.5
2017-04-16T06:40:28.180Z,1015.5
2017-04-16T06:41:30.814Z,1015.4
2017-04-16T06:42:33.021Z,1015.5
2017-04-16T06:43:35.861Z,1015.5
2017-04-16T06:44:38.215Z,1015.4
2017-04-16T06:45:41.119Z,1015.5
2017-04-16T06:46:43.760Z,1015.4
2017-04-16T06:47:46.102Z,1015.5
2017-04-16T06:48:48.954Z,1015.5
2017-04-16T06:49:51.797Z,1015.4
2017-04-16T06:50:54.151Z,1015.5
2017-04-16T06:51:57.253Z,1015.4
2017-04-16T06:52:59.465Z,1015.4
2017-04-16T06:54:01.864Z,1015.5
2017-04-16T06:55:04.701Z,1015.5
2017-04-16T06:56:07.038Z,1015.5
2017-04-16T06:57:10.133Z,1015.5
2017-04-16T06:58:12.469Z,1015.5
2017-04-16T06:59:15.320Z,1015.4
2017-04-16T07:00:17.525Z,1015.4
2017-04-16T07:01:20.366Z,1015.5
2017-04-16T07:02:23.509Z,1015.5
2017-04-16T07:03:25.714Z,1015.5
2017-04-16T07:04:28.071Z,1015.5
2017-04-16T07:05:30.915Z,1015.5
2017-04-16T07:06:33.254Z,1015.4
2017-04-16T07:07:36.228Z,1015.5
2017-04-16T07:09:41.476Z,1015.5
2017-04-16T07:10:43.816Z,1015.5
2017-04-16T07:11:46.522Z,1015.4
2017-04-16T07:12:49.612Z,1015.4
2017-04-16T07:13:51.817Z,1015.4
2017-04-16T07:14:54.663Z,1015.4
2017-04-16T07:15:57.000Z,1015.4
2017-04-16T07:18:02.543Z,1015.3
2017-04-16T07:19:04.882Z,1015.3
2017-04-16T07:20:07.722Z,1015.3
2017-04-16T07:21:10.060Z,1015.3
2017-04-16T07:22:12.631Z,1015.4
2017-04-16T07:23:15.776Z,1015.3
2017-04-16T07:24:18.116Z,1015.3
2017-04-16T07:25:20.455Z,1015.2
2017-04-16T07:26:23.291Z,1015.4
2017-04-16T07:27:26.134Z,1015.4
2017-04-16T07:28:28.768Z,1015.3
2017-04-16T07:29:31.125Z,1015.3
2017-04-16T07:30:33.959Z,1015.3
2017-04-16T07:31:36.296Z,1015.4
2017-04-16T07:32:39.135Z,1015.4
2017-04-16T07:33:41.723Z,1015.3
2017-04-16T07:34:44.564Z,1015.4
2017-04-16T07:35:46.904Z,1015.3
2017-04-16T07:36:49.743Z,1015.3
2017-04-16T07:37:52.086Z,1015.4
2017-04-16T07:38:55.179Z,1015.4
2017-04-16T07:41:00.096Z,1015.4
2017-04-16T07:42:02.799Z,1015.3
2017-04-16T07:43:05.507Z,1015.4
2017-04-16T07:44:08.278Z,1015.4
2017-04-16T07:45:10.621Z,1015.4
2017-04-16T07:46:13.459Z,1015.5
2017-04-16T07:47:15.792Z,1015.4
2017-04-16T07:48:18.672Z,1015.4
2017-04-16T07:49:21.308Z,1015.4
2017-04-16T07:50:24.015Z,1015.4
2017-04-16T07:51:26.215Z,1015.5
2017-04-16T07:52:29.059Z,1015.5
2017-04-16T07:53:31.899Z,1015.5
2017-04-16T07:54:34.541Z,1015.5
2017-04-16T07:55:36.779Z,1015.5
2017-04-16T07:56:39.806Z,1015.5
2017-04-16T07:57:42.136Z,1015.5
2017-04-16T07:58:44.984Z,1015.6
2017-04-16T07:59:47.575Z,1015.6
2017-04-16T08:00:49.909Z,1015.5
2017-04-16T08:02:55.153Z,1015.7
2017-04-16T08:03:58.005Z,1015.6
2017-04-16T08:05:01.158Z,1015.6
2017-04-16T08:06:03.145Z,1015.7
2017-04-16T08:07:05.847Z,1015.6
2017-04-16T08:08:08.688Z,1015.6
2017-04-16T08:09:11.068Z,1015.7
2017-04-16T08:10:14.199Z,1015.6
2017-04-16T08:11:16.605Z,1015.7
2017-04-16T08:12:18.941Z,1015.7
2017-04-16T08:13:21.514Z,1015.7
2017-04-16T08:14:24.358Z,1015.7
2017-04-16T08:15:26.947Z,1015.7
2017-04-16T08:16:29.289Z,1015.6
2017-04-16T08:17:32.138Z,1015.7
2017-04-16T08:18:34.977Z,1015.7
2017-04-16T08:19:37.316Z,1015.6
2017-04-16T08:21:42.868Z,1015.7
2017-04-16T08:22:45.204Z,1015.7
2017-04-16T08:23:48.043Z,1015.7
2017-04-16T08:24:50.380Z,1015.8
2017-04-16T08:25:53.221Z,1015.8
2017-04-16T08:26:55.858Z,1015.8
2017-04-16T08:27:58.192Z,1015.8
2017-04-16T08:29:01.035Z,1015.8
2017-04-16T08:30:03.887Z,1015.8
2017-04-16T08:31:06.230Z,1015.8
2017-04-16T08:32:09.276Z,1015.8
2017-04-16T08:33:11.611Z,1015.8
2017-04-16T08:34:14.199Z,1015.7
2017-04-16T08:35:16.585Z,1015.8
2017-04-16T08:36:19.425Z,1015.8
2017-04-16T08:37:22.520Z,1015.8
2017-04-16T08:38:24.720Z,1015.8
2017-04-16T08:39:27.568Z,1015.9
2017-04-16T08:41:32.815Z,1015.8
2017-04-16T08:42:35.458Z,1015.9
2017-04-16T08:43:37.798Z,1015.9
2017-04-16T08:44:40.641Z,1015.9
2017-04-16T08:45:42.981Z,1015.9
2017-04-16T08:46:45.795Z,1015.9
2017-04-16T08:47:48.528Z,1015.9
2017-04-16T08:48:50.863Z,1015.9
2017-04-16T08:49:53.706Z,1015.9
2017-04-16T08:50:56.070Z,1016
2017-04-16T08:51:58.908Z,1016
2017-04-16T08:53:02.049Z,1016.2
2017-04-16T08:54:04.390Z,1016
2017-04-16T08:55:06.730Z,1016
2017-04-16T08:56:09.579Z,1016
2017-04-16T08:57:11.918Z,1016.2
2017-04-16T08:58:15.014Z,1016.2
2017-04-16T08:59:17.355Z,1016.2
2017-04-16T09:00:19.798Z,1016.2
2017-04-16T09:01:22.638Z,1016.3
2017-04-16T09:02:25.480Z,1016.2
2017-04-16T09:03:28.076Z,1016.3
2017-04-16T09:04:30.419Z,1016.2
2017-04-16T09:05:33.262Z,1016.2
2017-04-16T09:06:35.594Z,1016.2
2017-04-16T09:07:38.438Z,1016.2
2017-04-16T09:08:41.590Z,1016.3
2017-04-16T09:09:43.789Z,1016.3
2017-04-16T09:10:46.126Z,1016.2
2017-04-16T09:11:48.965Z,1016.2
2017-04-16T09:12:51.817Z,1016.2
2017-04-16T09:13:54.326Z,1016.3
2017-04-16T09:14:56.666Z,1016.3
2017-04-16T09:15:59.367Z,1016.3
2017-04-16T09:17:02.203Z,1016.2
2017-04-16T09:18:04.545Z,1016.3
2017-04-16T09:19:07.687Z,1016.3
2017-04-16T09:20:10.023Z,1016.4
2017-04-16T09:21:12.860Z,1016.3
2017-04-16T09:22:15.257Z,1016.3
2017-04-16T09:23:18.107Z,1016.3
2017-04-16T09:24:20.742Z,1016.4
2017-04-16T09:25:23.077Z,1016.4
2017-04-16T09:26:25.925Z,1016.3
2017-04-16T09:27:28.289Z,1016.3
2017-04-16T09:28:31.010Z,1016.4
2017-04-16T09:29:34.106Z,1016.4
2017-04-16T09:30:36.440Z,1016.4
2017-04-16T09:31:39.275Z,1016.4
2017-04-16T09:32:41.615Z,1016.4
2017-04-16T09:33:44.454Z,1016.4
2017-04-16T09:34:47.045Z,1016.4
2017-04-16T09:35:49.391Z,1016.3
2017-04-16T09:36:52.232Z,1016.4
2017-04-16T09:37:54.575Z,1016.4
2017-04-16T09:38:57.425Z,1016.4
2017-04-16T09:40:00.576Z,1016.3
2017-04-16T09:41:02.714Z,1016.3
2017-04-16T09:42:05.561Z,1016.3
2017-04-16T09:43:07.906Z,1016.2
2017-04-16T09:44:10.749Z,1016.3
2017-04-16T09:45:13.756Z,1016.2
2017-04-16T09:46:16.096Z,1016.3
2017-04-16T09:47:18.431Z,1016.2
2017-04-16T09:49:23.676Z,1016
2017-04-16T09:51:29.089Z,1016.2
2017-04-16T09:52:31.420Z,1016
2017-04-16T09:53:34.264Z,1016.3
2017-04-16T09:54:36.982Z,1016.2
2017-04-16T09:55:39.318Z,1016.2
2017-04-16T09:56:42.322Z,1016.2
2017-04-16T09:57:45.029Z,1016.2
2017-04-16T09:58:47.361Z,1016
2017-04-16T09:59:50.207Z,1016
2017-04-16T10:00:52.552Z,1016
2017-04-16T10:01:55.647Z,1016
2017-04-16T10:02:57.988Z,1016
2017-04-16T10:04:00.832Z,1016
2017-04-16T10:06:06.074Z,1015.9
2017-04-16T10:07:08.811Z,1015.9
2017-04-16T10:08:11.145Z,1015.9
2017-04-16T10:09:13.986Z,1015.9
2017-04-16T10:10:16.327Z,1015.9
2017-04-16T10:11:19.173Z,1015.9
2017-04-16T10:12:21.871Z,1015.9
2017-04-16T10:13:24.258Z,1015.9
2017-04-16T10:14:27.102Z,1015.8
2017-04-16T10:16:32.340Z,1015.8
2017-04-16T10:17:35.352Z,1015.8
2017-04-16T10:18:37.700Z,1015.8
2017-04-16T10:19:40.042Z,1015.8
2017-04-16T10:21:45.285Z,1015.8
2017-04-16T10:22:48.380Z,1015.8
2017-04-16T10:23:50.586Z,1015.9
2017-04-16T10:24:53.423Z,1015.9
2017-04-16T10:25:55.756Z,1015.9
2017-04-16T10:26:58.600Z,1015.9
2017-04-16T10:28:01.695Z,1015.9
2017-04-16T10:29:04.033Z,1015.9
2017-04-16T10:30:06.368Z,1016
2017-04-16T10:31:09.215Z,1016
2017-04-16T10:32:11.784Z,1016.2
2017-04-16T10:33:14.738Z,1016.2
2017-04-16T10:34:17.271Z,1016.2
2017-04-16T10:35:19.766Z,1016.4
2017-04-16T10:36:22.610Z,1016.5
2017-04-16T10:37:24.950Z,1016.8
2017-04-16T10:38:28.045Z,1016.8
2017-04-16T10:39:30.394Z,1016.8
2017-04-16T10:40:33.098Z,1016.6
2017-04-16T10:41:35.437Z,1016.5
2017-04-16T10:42:38.289Z,1016.4
2017-04-16T10:43:40.941Z,1016.3
2017-04-16T10:44:43.284Z,1016.3
2017-04-16T10:45:46.119Z,1016.3
2017-04-16T10:46:48.453Z,1016.3
2017-04-16T10:47:51.294Z,1016.3
2017-04-16T10:48:54.058Z,1016.3
2017-04-16T10:49:56.260Z,1016.3
2017-04-16T10:50:59.099Z,1016.3
2017-04-16T10:52:01.441Z,1016.3
2017-04-16T10:54:06.935Z,1016.3
2017-04-16T10:55:09.679Z,1016.3
2017-04-16T10:56:11.884Z,1016.3
2017-04-16T10:57:14.720Z,1016.3
2017-04-16T10:58:17.057Z,1016.3
2017-04-16T10:59:20.152Z,1016.3
2017-04-16T11:00:22.494Z,1016.2
2017-04-16T11:01:24.829Z,1016.2
2017-04-16T11:02:27.673Z,1016.2
2017-04-16T11:03:30.278Z,1016.2
2017-04-16T11:04:32.918Z,1016.2
2017-04-16T11:05:35.251Z,1016.2
2017-04-16T11:06:38.091Z,1016.2
2017-04-16T11:07:40.431Z,1016.2
2017-04-16T11:08:43.507Z,1016
2017-04-16T11:09:46.150Z,1016
2017-04-16T11:10:48.486Z,1016
2017-04-16T11:11:51.321Z,1016
2017-04-16T11:12:53.657Z,1015.9
2017-04-16T11:13:56.503Z,1016
2017-04-16T11:14:59.138Z,1016
2017-04-16T11:16:01.479Z,1016
2017-04-16T11:17:04.027Z,1016
2017-04-16T11:18:06.871Z,1016
2017-04-16T11:19:09.586Z,1016
2017-04-16T11:20:12.177Z,1016
2017-04-16T11:21:14.520Z,1016
2017-04-16T11:22:17.365Z,1016
2017-04-16T11:23:19.705Z,1015.9
2017-04-16T11:24:22.552Z,1015.8
2017-04-16T11:25:25.371Z,1015.9
2017-04-16T11:26:27.713Z,1015.9
2017-04-16T11:27:30.065Z,1015.9
2017-04-16T11:28:32.912Z,1015.9
2017-04-16T11:29:35.760Z,1015.9
2017-04-16T11:30:38.434Z,1015.8
2017-04-16T11:31:40.777Z,1015.9
2017-04-16T11:32:43.615Z,1015.9
2017-04-16T11:33:45.822Z,1015.9
2017-04-16T11:34:48.663Z,1015.9
2017-04-16T11:35:51.301Z,1015.9
2017-04-16T11:36:53.638Z,1015.9
2017-04-16T11:37:56.483Z,1015.9
2017-04-16T11:38:58.823Z,1015.9
2017-04-16T11:40:01.667Z,1015.9
2017-04-16T11:41:04.812Z,1015.8
2017-04-16T11:42:07.152Z,1015.9
2017-04-16T11:43:09.358Z,1015.8
2017-04-16T11:44:12.201Z,1015.8
2017-04-16T11:45:14.542Z,1015.9
2017-04-16T11:46:17.682Z,1015.9
2017-04-16T11:47:20.023Z,1015.9
2017-04-16T11:48:22.419Z,1016
2017-04-16T11:49:25.270Z,1015.9
2017-04-16T11:50:28.115Z,1015.9
2017-04-16T11:51:30.749Z,1015.9
2017-04-16T11:52:32.949Z,1016
2017-04-16T11:53:35.786Z,1015.9
2017-04-16T11:54:38.124Z,1016
2017-04-16T11:55:40.826Z,1015.9
2017-04-16T11:56:43.969Z,1015.9
2017-04-16T11:57:46.337Z,1015.9
2017-04-16T11:59:51.459Z,1015.8
2017-04-16T12:00:54.299Z,1015.9
2017-04-16T12:01:56.936Z,1015.9
2017-04-16T12:02:59.276Z,1015.9
2017-04-16T12:04:02.184Z,1015.9
2017-04-16T12:05:04.523Z,1016
2017-04-16T12:06:07.228Z,1016.2
2017-04-16T12:07:10.102Z,1016
2017-04-16T12:08:12.440Z,1016
2017-04-16T12:09:15.276Z,1016
2017-04-16T12:10:17.613Z,1016
2017-04-16T12:11:20.108Z,1015.9
2017-04-16T12:12:23.263Z,1015.9
2017-04-16T12:13:25.610Z,1016
2017-04-16T12:14:27.947Z,1015.9
2017-04-16T12:15:30.785Z,1016
2017-04-16T12:16:33.126Z,1016
2017-04-16T12:17:36.270Z,1016
2017-04-16T12:18:38.602Z,1015.9
2017-04-16T12:19:41.311Z,1015.9
2017-04-16T12:20:43.653Z,1015.9
2017-04-16T12:21:46.492Z,1015.9
2017-04-16T12:22:49.455Z,1015.9
2017-04-16T12:23:51.659Z,1015.9
2017-04-16T12:24:54.499Z,1015.8
2017-04-16T12:25:56.840Z,1015.9
2017-04-16T12:26:59.685Z,1015.9
2017-04-16T12:28:02.269Z,1015.8
2017-04-16T12:30:07.513Z,1015.8
2017-04-16T12:31:09.851Z,1015.7
2017-04-16T12:33:15.396Z,1015.7
2017-04-16T12:34:17.733Z,1015.7
2017-04-16T12:35:20.571Z,1015.7
2017-04-16T12:36:22.911Z,1015.7
2017-04-16T12:37:25.617Z,1015.8
2017-04-16T12:38:28.499Z,1015.9
2017-04-16T12:39:30.841Z,1015.8
2017-04-16T12:40:33.679Z,1015.8
2017-04-16T12:41:36.388Z,1015.8
2017-04-16T12:42:38.721Z,1015.7
2017-04-16T12:43:41.868Z,1015.7
2017-04-16T12:44:44.251Z,1015.8
2017-04-16T12:45:46.587Z,1015.8
2017-04-16T12:46:49.425Z,1015.8
2017-04-16T12:47:52.262Z,1015.8
2017-04-16T12:48:54.963Z,1015.8
2017-04-16T12:49:57.162Z,1015.8
2017-04-16T12:51:00.006Z,1015.8
2017-04-16T12:52:02.535Z,1015.7
2017-04-16T12:53:05.242Z,1015.7
2017-04-16T12:54:07.879Z,1015.7
2017-04-16T12:55:10.226Z,1015.7
2017-04-16T12:56:13.113Z,1015.7
2017-04-16T12:57:15.458Z,1015.7
2017-04-16T12:58:18.297Z,1015.7
2017-04-16T12:59:20.936Z,1015.7
2017-04-16T13:00:23.640Z,1015.7
2017-04-16T13:01:25.976Z,1015.7
2017-04-16T13:02:28.821Z,1015.6
2017-04-16T13:03:31.161Z,1015.7
2017-04-16T13:04:34.308Z,1015.6
2017-04-16T13:05:36.681Z,1015.7
2017-04-16T13:06:39.018Z,1015.6
2017-04-16T13:07:41.857Z,1015.6
2017-04-16T13:08:44.701Z,1015.6
2017-04-16T13:09:52.430Z,1015.6
2017-04-16T13:10:49.733Z,1015.6
2017-04-16T13:11:52.569Z,1015.6
2017-04-16T13:12:54.906Z,1015.5
2017-04-16T13:13:57.530Z,1015.6
2017-04-16T13:15:00.777Z,1015.6
2017-04-16T13:16:02.987Z,1015.6
2017-04-16T13:17:05.322Z,1015.5
2017-04-16T13:18:08.162Z,1015.6
2017-04-16T13:19:10.865Z,1015.4
2017-04-16T13:20:13.453Z,1015.4
2017-04-16T13:21:15.790Z,1015.5
2017-04-16T13:22:18.631Z,1015.5
2017-04-16T13:23:21.473Z,1015.5
2017-04-16T13:25:27.018Z,1015.4
2017-04-16T13:27:31.760Z,1015.4
2017-04-16T13:28:34.463Z,1015.3
2017-04-16T13:29:36.796Z,1015.4
2017-04-16T13:30:39.938Z,1015.4
2017-04-16T13:31:42.299Z,1015.4
2017-04-16T13:32:44.859Z,1015.4
2017-04-16T13:33:47.701Z,1015.4
2017-04-16T13:34:50.037Z,1015.3
2017-04-16T13:35:53.126Z,1015.4
2017-04-16T13:36:55.462Z,1015.3
2017-04-16T13:37:57.799Z,1015.2
2017-04-16T13:39:00.508Z,1015.3
2017-04-16T13:40:03.344Z,1015.3
2017-04-16T13:41:05.986Z,1015.3
2017-04-16T13:42:08.325Z,1015.3
2017-04-16T13:43:11.164Z,1015.3
2017-04-16T13:44:13.506Z,1015.3
2017-04-16T13:45:16.348Z,1015.3
2017-04-16T13:46:19.206Z,1015.3
2017-04-16T13:47:21.538Z,1015.3
2017-04-16T13:48:24.246Z,1015.3
2017-04-16T13:49:27.084Z,1015.3
2017-04-16T13:50:29.425Z,1015.3